sensor_id;sensor_type;location;lat;lon;timestamp;P1;durP1;ratioP1;P2;durP2;ratioP2
76336;SDS011;65157;50.082;18.178;2023-02-10T00:01:17;14.50;;;6.10;;
76336;SDS011;65157;50.082;18.178;2023-02-10T00:03:47;9.10;;;4.80;;
76336;SDS011;65157;50.082;18.178;2023-02-10T00:06:14;7.10;;;3.00;;
76336;SDS011;65157;50.082;18.178;2023-02-10T00:11:09;13.50;;;6.10;;
76336;SDS011;65157;50.082;18.178;2023-02-10T00:13:37;18.90;;;7.50;;
76336;SDS011;65157;50.082;18.178;2023-02-10T00:16:06;11.80;;;5.30;;
76336;SDS011;65157;50.082;18.178;2023-02-10T00:18:34;9.00;;;3.90;;
76336;SDS011;65157;50.082;18.178;2023-02-10T00:21:08;11.50;;;3.70;;
76336;SDS011;65157;50.082;18.178;2023-02-10T00:23:38;12.10;;;5.40;;
76336;SDS011;65157;50.082;18.178;2023-02-10T00:26:06;11.40;;;4.80;;
76336;SDS011;65157;50.082;18.178;2023-02-10T00:28:34;6.20;;;2.10;;
76336;SDS011;65157;50.082;18.178;2023-02-10T00:31:08;11.40;;;5.30;;
76336;SDS011;65157;50.082;18.178;2023-02-10T00:33:37;13.30;;;5.70;;
76336;SDS011;65157;50.082;18.178;2023-02-10T00:36:05;10.40;;;4.50;;
76336;SDS011;65157;50.082;18.178;2023-02-10T00:38:34;6.80;;;3.50;;
76336;SDS011;65157;50.082;18.178;2023-02-10T00:41:22;10.60;;;5.00;;
76336;SDS011;65157;50.082;18.178;2023-02-10T00:43:49;6.60;;;2.80;;
76336;SDS011;65157;50.082;18.178;2023-02-10T00:46:17;9.80;;;4.50;;
76336;SDS011;65157;50.082;18.178;2023-02-10T00:48:45;11.00;;;4.70;;
76336;SDS011;65157;50.082;18.178;2023-02-10T00:51:12;9.60;;;4.60;;
76336;SDS011;65157;50.082;18.178;2023-02-10T00:53:40;10.50;;;4.70;;
76336;SDS011;65157;50.082;18.178;2023-02-10T00:56:07;7.20;;;3.60;;
76336;SDS011;65157;50.082;18.178;2023-02-10T01:03:29;10.00;;;4.00;;
76336;SDS011;65157;50.082;18.178;2023-02-10T01:05:56;7.30;;;3.20;;
76336;SDS011;65157;50.082;18.178;2023-02-10T01:08:22;10.00;;;4.40;;
76336;SDS011;65157;50.082;18.178;2023-02-10T01:10:49;9.40;;;4.40;;
76336;SDS011;65157;50.082;18.178;2023-02-10T01:13:23;10.10;;;4.90;;
76336;SDS011;65157;50.082;18.178;2023-02-10T01:15:49;6.90;;;3.60;;
76336;SDS011;65157;50.082;18.178;2023-02-10T01:18:16;9.20;;;3.90;;
76336;SDS011;65157;50.082;18.178;2023-02-10T01:20:43;5.20;;;2.80;;
76336;SDS011;65157;50.082;18.178;2023-02-10T01:23:09;15.70;;;6.70;;
76336;SDS011;65157;50.082;18.178;2023-02-10T01:25:37;12.50;;;6.70;;
76336;SDS011;65157;50.082;18.178;2023-02-10T01:28:04;7.90;;;4.10;;
76336;SDS011;65157;50.082;18.178;2023-02-10T01:30:32;12.30;;;6.10;;
76336;SDS011;65157;50.082;18.178;2023-02-10T01:33:00;12.50;;;5.30;;
76336;SDS011;65157;50.082;18.178;2023-02-10T01:35:27;12.10;;;5.70;;
76336;SDS011;65157;50.082;18.178;2023-02-10T01:37:53;10.40;;;4.60;;
76336;SDS011;65157;50.082;18.178;2023-02-10T01:40:21;11.00;;;4.10;;
76336;SDS011;65157;50.082;18.178;2023-02-10T01:42:48;13.90;;;5.70;;
76336;SDS011;65157;50.082;18.178;2023-02-10T01:45:34;13.50;;;6.40;;
76336;SDS011;65157;50.082;18.178;2023-02-10T01:48:04;7.80;;;3.50;;
76336;SDS011;65157;50.082;18.178;2023-02-10T01:53:01;5.00;;;2.90;;
76336;SDS011;65157;50.082;18.178;2023-02-10T01:55:30;6.70;;;3.40;;
76336;SDS011;65157;50.082;18.178;2023-02-10T01:57:59;7.10;;;3.70;;
76336;SDS011;65157;50.082;18.178;2023-02-10T02:00:27;9.40;;;4.90;;
76336;SDS011;65157;50.082;18.178;2023-02-10T02:02:54;5.50;;;2.80;;
76336;SDS011;65157;50.082;18.178;2023-02-10T02:07:56;9.40;;;4.10;;
76336;SDS011;65157;50.082;18.178;2023-02-10T02:10:50;7.50;;;3.70;;
76336;SDS011;65157;50.082;18.178;2023-02-10T02:30:19;9.90;;;5.00;;
76336;SDS011;65157;50.082;18.178;2023-02-10T02:33:04;11.80;;;5.40;;
76336;SDS011;65157;50.082;18.178;2023-02-10T02:35:47;13.40;;;5.50;;
76336;SDS011;65157;50.082;18.178;2023-02-10T02:38:20;8.10;;;3.90;;
76336;SDS011;65157;50.082;18.178;2023-02-10T02:40:47;12.60;;;5.60;;
76336;SDS011;65157;50.082;18.178;2023-02-10T02:43:14;2.90;;;1.50;;
76336;SDS011;65157;50.082;18.178;2023-02-10T02:45:44;13.70;;;5.40;;
76336;SDS011;65157;50.082;18.178;2023-02-10T02:48:30;8.80;;;3.90;;
76336;SDS011;65157;50.082;18.178;2023-02-10T02:51:05;9.10;;;4.40;;
76336;SDS011;65157;50.082;18.178;2023-02-10T02:53:39;11.90;;;5.10;;
76336;SDS011;65157;50.082;18.178;2023-02-10T02:58:56;10.50;;;4.70;;
76336;SDS011;65157;50.082;18.178;2023-02-10T03:01:34;10.90;;;4.60;;
76336;SDS011;65157;50.082;18.178;2023-02-10T03:04:05;10.00;;;5.00;;
76336;SDS011;65157;50.082;18.178;2023-02-10T03:06:33;9.80;;;4.70;;
76336;SDS011;65157;50.082;18.178;2023-02-10T03:08:59;9.30;;;4.20;;
76336;SDS011;65157;50.082;18.178;2023-02-10T03:11:26;10.30;;;4.80;;
76336;SDS011;65157;50.082;18.178;2023-02-10T03:13:53;6.70;;;3.30;;
76336;SDS011;65157;50.082;18.178;2023-02-10T03:16:19;10.80;;;5.00;;
76336;SDS011;65157;50.082;18.178;2023-02-10T03:18:46;5.90;;;2.60;;
76336;SDS011;65157;50.082;18.178;2023-02-10T03:21:13;11.60;;;4.60;;
76336;SDS011;65157;50.082;18.178;2023-02-10T03:23:39;5.60;;;3.00;;
76336;SDS011;65157;50.082;18.178;2023-02-10T03:26:06;7.20;;;4.00;;
76336;SDS011;65157;50.082;18.178;2023-02-10T03:28:34;11.30;;;4.90;;
76336;SDS011;65157;50.082;18.178;2023-02-10T03:31:01;7.60;;;3.80;;
76336;SDS011;65157;50.082;18.178;2023-02-10T03:33:32;12.30;;;4.70;;
76336;SDS011;65157;50.082;18.178;2023-02-10T03:36:00;12.60;;;5.80;;
76336;SDS011;65157;50.082;18.178;2023-02-10T03:38:27;12.20;;;5.80;;
76336;SDS011;65157;50.082;18.178;2023-02-10T03:40:55;13.40;;;5.70;;
76336;SDS011;65157;50.082;18.178;2023-02-10T03:43:22;10.90;;;4.40;;
76336;SDS011;65157;50.082;18.178;2023-02-10T03:45:49;5.10;;;2.70;;
76336;SDS011;65157;50.082;18.178;2023-02-10T03:48:15;11.60;;;5.80;;
76336;SDS011;65157;50.082;18.178;2023-02-10T03:50:42;11.50;;;5.20;;
76336;SDS011;65157;50.082;18.178;2023-02-10T03:53:09;10.20;;;4.60;;
76336;SDS011;65157;50.082;18.178;2023-02-10T03:55:36;11.30;;;4.40;;
76336;SDS011;65157;50.082;18.178;2023-02-10T03:58:03;6.50;;;3.00;;
76336;SDS011;65157;50.082;18.178;2023-02-10T04:00:29;6.10;;;3.20;;
76336;SDS011;65157;50.082;18.178;2023-02-10T04:02:57;11.00;;;5.10;;
76336;SDS011;65157;50.082;18.178;2023-02-10T04:05:23;8.50;;;4.20;;
76336;SDS011;65157;50.082;18.178;2023-02-10T04:07:50;9.40;;;4.80;;
76336;SDS011;65157;50.082;18.178;2023-02-10T04:10:17;8.10;;;4.00;;
76336;SDS011;65157;50.082;18.178;2023-02-10T04:12:44;6.00;;;3.20;;
76336;SDS011;65157;50.082;18.178;2023-02-10T04:15:10;7.70;;;4.00;;
76336;SDS011;65157;50.082;18.178;2023-02-10T04:17:37;11.80;;;5.20;;
76336;SDS011;65157;50.082;18.178;2023-02-10T04:20:03;11.80;;;5.80;;
76336;SDS011;65157;50.082;18.178;2023-02-10T04:22:30;11.10;;;4.60;;
76336;SDS011;65157;50.082;18.178;2023-02-10T04:24:57;10.00;;;4.10;;
76336;SDS011;65157;50.082;18.178;2023-02-10T04:27:24;9.20;;;3.70;;
76336;SDS011;65157;50.082;18.178;2023-02-10T04:29:50;7.20;;;3.00;;
76336;SDS011;65157;50.082;18.178;2023-02-10T04:32:17;12.50;;;5.50;;
76336;SDS011;65157;50.082;18.178;2023-02-10T04:34:44;16.80;;;6.40;;
76336;SDS011;65157;50.082;18.178;2023-02-10T04:37:10;13.00;;;5.90;;
76336;SDS011;65157;50.082;18.178;2023-02-10T04:39:37;14.70;;;5.00;;
76336;SDS011;65157;50.082;18.178;2023-02-10T04:42:04;8.20;;;4.10;;
76336;SDS011;65157;50.082;18.178;2023-02-10T04:44:31;11.10;;;5.80;;
76336;SDS011;65157;50.082;18.178;2023-02-10T04:46:57;12.10;;;5.50;;
76336;SDS011;65157;50.082;18.178;2023-02-10T04:49:24;9.30;;;3.80;;
76336;SDS011;65157;50.082;18.178;2023-02-10T04:51:51;11.30;;;5.10;;
76336;SDS011;65157;50.082;18.178;2023-02-10T04:54:19;8.50;;;4.00;;
76336;SDS011;65157;50.082;18.178;2023-02-10T04:56:45;8.10;;;4.30;;
76336;SDS011;65157;50.082;18.178;2023-02-10T04:59:12;11.80;;;5.70;;
76336;SDS011;65157;50.082;18.178;2023-02-10T05:01:39;13.40;;;5.50;;
76336;SDS011;65157;50.082;18.178;2023-02-10T05:04:05;12.70;;;4.90;;
76336;SDS011;65157;50.082;18.178;2023-02-10T05:06:32;15.30;;;5.80;;
76336;SDS011;65157;50.082;18.178;2023-02-10T05:08:59;9.10;;;3.90;;
76336;SDS011;65157;50.082;18.178;2023-02-10T05:11:25;12.10;;;5.10;;
76336;SDS011;65157;50.082;18.178;2023-02-10T05:13:52;12.50;;;4.20;;
76336;SDS011;65157;50.082;18.178;2023-02-10T05:16:18;8.90;;;3.90;;
76336;SDS011;65157;50.082;18.178;2023-02-10T05:18:45;10.40;;;4.70;;
76336;SDS011;65157;50.082;18.178;2023-02-10T05:21:12;10.00;;;5.00;;
76336;SDS011;65157;50.082;18.178;2023-02-10T05:23:40;9.70;;;4.40;;
76336;SDS011;65157;50.082;18.178;2023-02-10T05:26:07;9.90;;;4.00;;
76336;SDS011;65157;50.082;18.178;2023-02-10T05:28:34;9.70;;;4.50;;
76336;SDS011;65157;50.082;18.178;2023-02-10T05:31:01;11.80;;;4.90;;
76336;SDS011;65157;50.082;18.178;2023-02-10T05:33:28;13.60;;;4.80;;
76336;SDS011;65157;50.082;18.178;2023-02-10T05:35:55;11.00;;;4.50;;
76336;SDS011;65157;50.082;18.178;2023-02-10T05:38:25;10.10;;;3.90;;
76336;SDS011;65157;50.082;18.178;2023-02-10T05:40:52;17.90;;;7.00;;
76336;SDS011;65157;50.082;18.178;2023-02-10T05:43:19;17.40;;;7.10;;
76336;SDS011;65157;50.082;18.178;2023-02-10T05:45:45;15.80;;;6.70;;
76336;SDS011;65157;50.082;18.178;2023-02-10T05:48:13;14.10;;;6.80;;
76336;SDS011;65157;50.082;18.178;2023-02-10T05:50:39;16.50;;;6.80;;
76336;SDS011;65157;50.082;18.178;2023-02-10T05:53:06;7.40;;;3.10;;
76336;SDS011;65157;50.082;18.178;2023-02-10T05:55:33;17.10;;;6.90;;
76336;SDS011;65157;50.082;18.178;2023-02-10T05:58:00;15.70;;;6.70;;
76336;SDS011;65157;50.082;18.178;2023-02-10T06:00:26;14.80;;;6.70;;
76336;SDS011;65157;50.082;18.178;2023-02-10T06:02:53;21.90;;;8.30;;
76336;SDS011;65157;50.082;18.178;2023-02-10T06:05:20;19.50;;;8.70;;
76336;SDS011;65157;50.082;18.178;2023-02-10T06:07:46;17.10;;;7.20;;
76336;SDS011;65157;50.082;18.178;2023-02-10T06:10:13;15.20;;;5.90;;
76336;SDS011;65157;50.082;18.178;2023-02-10T06:12:40;14.30;;;5.80;;
76336;SDS011;65157;50.082;18.178;2023-02-10T06:15:07;9.60;;;4.70;;
76336;SDS011;65157;50.082;18.178;2023-02-10T06:17:34;13.00;;;5.80;;
76336;SDS011;65157;50.082;18.178;2023-02-10T06:20:00;14.00;;;6.00;;
76336;SDS011;65157;50.082;18.178;2023-02-10T06:22:27;14.60;;;6.90;;
76336;SDS011;65157;50.082;18.178;2023-02-10T06:24:54;8.80;;;4.80;;
76336;SDS011;65157;50.082;18.178;2023-02-10T06:27:20;14.20;;;6.70;;
76336;SDS011;65157;50.082;18.178;2023-02-10T06:29:47;10.60;;;5.00;;
76336;SDS011;65157;50.082;18.178;2023-02-10T06:32:13;2.90;;;1.60;;
76336;SDS011;65157;50.082;18.178;2023-02-10T06:34:40;14.60;;;7.50;;
76336;SDS011;65157;50.082;18.178;2023-02-10T06:37:07;16.90;;;7.10;;
76336;SDS011;65157;50.082;18.178;2023-02-10T06:39:33;18.80;;;8.00;;
76336;SDS011;65157;50.082;18.178;2023-02-10T06:42:00;15.70;;;6.50;;
76336;SDS011;65157;50.082;18.178;2023-02-10T06:44:27;19.30;;;7.10;;
76336;SDS011;65157;50.082;18.178;2023-02-10T06:46:54;19.80;;;8.30;;
76336;SDS011;65157;50.082;18.178;2023-02-10T06:49:20;12.20;;;5.40;;
76336;SDS011;65157;50.082;18.178;2023-02-10T06:51:47;13.20;;;5.70;;
76336;SDS011;65157;50.082;18.178;2023-02-10T06:54:13;9.70;;;3.90;;
76336;SDS011;65157;50.082;18.178;2023-02-10T06:56:40;12.00;;;4.50;;
76336;SDS011;65157;50.082;18.178;2023-02-10T06:59:07;14.90;;;6.00;;
76336;SDS011;65157;50.082;18.178;2023-02-10T07:01:33;19.80;;;7.90;;
76336;SDS011;65157;50.082;18.178;2023-02-10T07:04:00;15.80;;;6.90;;
76336;SDS011;65157;50.082;18.178;2023-02-10T07:06:27;17.40;;;6.60;;
76336;SDS011;65157;50.082;18.178;2023-02-10T07:08:53;7.60;;;3.40;;
76336;SDS011;65157;50.082;18.178;2023-02-10T07:11:20;13.30;;;4.80;;
76336;SDS011;65157;50.082;18.178;2023-02-10T07:13:47;23.70;;;9.00;;
76336;SDS011;65157;50.082;18.178;2023-02-10T07:16:13;14.80;;;6.10;;
76336;SDS011;65157;50.082;18.178;2023-02-10T07:18:40;15.00;;;6.10;;
76336;SDS011;65157;50.082;18.178;2023-02-10T07:21:07;14.10;;;5.50;;
76336;SDS011;65157;50.082;18.178;2023-02-10T07:23:34;15.00;;;5.90;;
76336;SDS011;65157;50.082;18.178;2023-02-10T07:26:00;11.20;;;3.60;;
76336;SDS011;65157;50.082;18.178;2023-02-10T07:28:27;22.10;;;8.30;;
76336;SDS011;65157;50.082;18.178;2023-02-10T07:30:53;18.10;;;6.80;;
76336;SDS011;65157;50.082;18.178;2023-02-10T07:33:20;17.50;;;6.60;;
76336;SDS011;65157;50.082;18.178;2023-02-10T07:35:47;15.10;;;5.90;;
76336;SDS011;65157;50.082;18.178;2023-02-10T07:38:13;11.90;;;5.00;;
76336;SDS011;65157;50.082;18.178;2023-02-10T07:40:40;12.00;;;5.30;;
76336;SDS011;65157;50.082;18.178;2023-02-10T07:43:07;16.20;;;7.10;;
76336;SDS011;65157;50.082;18.178;2023-02-10T07:45:33;16.80;;;7.50;;
76336;SDS011;65157;50.082;18.178;2023-02-10T07:48:00;11.40;;;5.10;;
76336;SDS011;65157;50.082;18.178;2023-02-10T07:50:26;10.50;;;4.60;;
76336;SDS011;65157;50.082;18.178;2023-02-10T07:52:53;8.60;;;3.80;;
76336;SDS011;65157;50.082;18.178;2023-02-10T07:55:20;9.70;;;4.60;;
76336;SDS011;65157;50.082;18.178;2023-02-10T07:57:46;6.80;;;3.40;;
76336;SDS011;65157;50.082;18.178;2023-02-10T08:00:13;7.40;;;3.70;;
76336;SDS011;65157;50.082;18.178;2023-02-10T08:02:40;13.70;;;6.30;;
76336;SDS011;65157;50.082;18.178;2023-02-10T08:05:06;14.30;;;6.10;;
76336;SDS011;65157;50.082;18.178;2023-02-10T08:07:33;13.40;;;5.70;;
76336;SDS011;65157;50.082;18.178;2023-02-10T08:10:00;7.40;;;3.80;;
76336;SDS011;65157;50.082;18.178;2023-02-10T08:12:27;15.00;;;7.60;;
76336;SDS011;65157;50.082;18.178;2023-02-10T08:14:53;12.10;;;6.20;;
76336;SDS011;65157;50.082;18.178;2023-02-10T08:17:20;17.50;;;7.50;;
76336;SDS011;65157;50.082;18.178;2023-02-10T08:19:46;12.80;;;6.40;;
76336;SDS011;65157;50.082;18.178;2023-02-10T08:22:13;7.70;;;4.00;;
76336;SDS011;65157;50.082;18.178;2023-02-10T08:24:40;12.20;;;6.60;;
76336;SDS011;65157;50.082;18.178;2023-02-10T08:27:06;16.20;;;7.60;;
76336;SDS011;65157;50.082;18.178;2023-02-10T08:29:33;10.60;;;4.80;;
76336;SDS011;65157;50.082;18.178;2023-02-10T08:31:59;16.60;;;7.60;;
76336;SDS011;65157;50.082;18.178;2023-02-10T08:34:26;14.40;;;6.80;;
76336;SDS011;65157;50.082;18.178;2023-02-10T08:36:53;13.90;;;5.50;;
76336;SDS011;65157;50.082;18.178;2023-02-10T08:39:20;8.50;;;4.50;;
76336;SDS011;65157;50.082;18.178;2023-02-10T08:41:46;10.40;;;5.30;;
76336;SDS011;65157;50.082;18.178;2023-02-10T08:44:13;13.70;;;6.10;;
76336;SDS011;65157;50.082;18.178;2023-02-10T08:46:40;13.50;;;5.40;;
76336;SDS011;65157;50.082;18.178;2023-02-10T08:49:07;5.30;;;3.00;;
76336;SDS011;65157;50.082;18.178;2023-02-10T08:51:33;6.80;;;3.40;;
76336;SDS011;65157;50.082;18.178;2023-02-10T08:54:00;12.10;;;5.30;;
76336;SDS011;65157;50.082;18.178;2023-02-10T08:58:54;11.90;;;4.90;;
76336;SDS011;65157;50.082;18.178;2023-02-10T09:01:22;12.10;;;5.90;;
76336;SDS011;65157;50.082;18.178;2023-02-10T09:03:51;15.70;;;7.30;;
76336;SDS011;65157;50.082;18.178;2023-02-10T09:06:20;8.10;;;4.90;;
76336;SDS011;65157;50.082;18.178;2023-02-10T09:08:49;14.70;;;6.60;;
76336;SDS011;65157;50.082;18.178;2023-02-10T09:11:16;14.80;;;7.20;;
76336;SDS011;65157;50.082;18.178;2023-02-10T09:13:43;13.20;;;6.40;;
76336;SDS011;65157;50.082;18.178;2023-02-10T09:16:10;15.50;;;7.40;;
76336;SDS011;65157;50.082;18.178;2023-02-10T09:18:37;9.80;;;4.90;;
76336;SDS011;65157;50.082;18.178;2023-02-10T09:21:04;12.30;;;6.20;;
76336;SDS011;65157;50.082;18.178;2023-02-10T09:23:31;18.40;;;7.50;;
76336;SDS011;65157;50.082;18.178;2023-02-10T09:25:58;13.50;;;7.20;;
76336;SDS011;65157;50.082;18.178;2023-02-10T09:28:26;12.10;;;5.90;;
76336;SDS011;65157;50.082;18.178;2023-02-10T09:30:53;17.80;;;7.90;;
76336;SDS011;65157;50.082;18.178;2023-02-10T09:33:20;11.00;;;5.10;;
76336;SDS011;65157;50.082;18.178;2023-02-10T09:35:47;6.00;;;3.20;;
76336;SDS011;65157;50.082;18.178;2023-02-10T09:38:14;8.20;;;4.30;;
76336;SDS011;65157;50.082;18.178;2023-02-10T09:49:17;12.70;;;5.70;;
76336;SDS011;65157;50.082;18.178;2023-02-10T09:54:38;18.50;;;8.60;;
76336;SDS011;65157;50.082;18.178;2023-02-10T09:57:08;13.40;;;6.30;;
76336;SDS011;65157;50.082;18.178;2023-02-10T10:04:43;15.50;;;7.10;;
76336;SDS011;65157;50.082;18.178;2023-02-10T10:07:17;14.40;;;7.50;;
76336;SDS011;65157;50.082;18.178;2023-02-10T10:09:46;14.30;;;7.20;;
76336;SDS011;65157;50.082;18.178;2023-02-10T10:12:23;11.90;;;5.80;;
76336;SDS011;65157;50.082;18.178;2023-02-10T10:14:49;12.20;;;6.00;;
76336;SDS011;65157;50.082;18.178;2023-02-10T10:20:05;17.10;;;8.30;;
76336;SDS011;65157;50.082;18.178;2023-02-10T10:22:52;16.50;;;7.20;;
76336;SDS011;65157;50.082;18.178;2023-02-10T10:28:22;14.20;;;7.60;;
76336;SDS011;65157;50.082;18.178;2023-02-10T10:30:57;11.70;;;5.90;;
76336;SDS011;65157;50.082;18.178;2023-02-10T10:36:16;12.40;;;5.40;;
76336;SDS011;65157;50.082;18.178;2023-02-10T10:38:49;9.70;;;5.60;;
76336;SDS011;65157;50.082;18.178;2023-02-10T10:41:22;16.30;;;7.00;;
76336;SDS011;65157;50.082;18.178;2023-02-10T10:43:53;11.00;;;5.20;;
76336;SDS011;65157;50.082;18.178;2023-02-10T10:48:56;17.90;;;9.20;;
76336;SDS011;65157;50.082;18.178;2023-02-10T10:51:23;13.50;;;7.20;;
76336;SDS011;65157;50.082;18.178;2023-02-10T11:01:47;13.10;;;6.40;;
76336;SDS011;65157;50.082;18.178;2023-02-10T11:04:17;14.30;;;7.60;;
76336;SDS011;65157;50.082;18.178;2023-02-10T11:06:45;16.60;;;8.30;;
76336;SDS011;65157;50.082;18.178;2023-02-10T11:09:20;16.90;;;8.20;;
76336;SDS011;65157;50.082;18.178;2023-02-10T11:11:46;20.50;;;9.20;;
76336;SDS011;65157;50.082;18.178;2023-02-10T11:14:23;14.90;;;7.20;;
76336;SDS011;65157;50.082;18.178;2023-02-10T11:16:52;18.60;;;8.10;;
76336;SDS011;65157;50.082;18.178;2023-02-10T11:19:23;16.80;;;7.20;;
76336;SDS011;65157;50.082;18.178;2023-02-10T11:21:52;6.50;;;3.70;;
76336;SDS011;65157;50.082;18.178;2023-02-10T11:24:24;12.50;;;5.90;;
76336;SDS011;65157;50.082;18.178;2023-02-10T11:29:31;15.10;;;6.90;;
76336;SDS011;65157;50.082;18.178;2023-02-10T11:32:00;9.10;;;4.50;;
76336;SDS011;65157;50.082;18.178;2023-02-10T11:34:31;18.70;;;8.20;;
76336;SDS011;65157;50.082;18.178;2023-02-10T11:37:10;11.20;;;5.20;;
76336;SDS011;65157;50.082;18.178;2023-02-10T11:39:45;14.80;;;7.20;;
76336;SDS011;65157;50.082;18.178;2023-02-10T11:44:51;17.00;;;7.90;;
76336;SDS011;65157;50.082;18.178;2023-02-10T11:47:19;16.80;;;7.80;;
76336;SDS011;65157;50.082;18.178;2023-02-10T11:49:46;12.50;;;6.60;;
76336;SDS011;65157;50.082;18.178;2023-02-10T11:52:15;18.80;;;7.40;;
76336;SDS011;65157;50.082;18.178;2023-02-10T11:54:43;21.30;;;9.00;;
76336;SDS011;65157;50.082;18.178;2023-02-10T12:00:18;27.10;;;9.80;;
76336;SDS011;65157;50.082;18.178;2023-02-10T12:06:03;24.40;;;9.90;;
76336;SDS011;65157;50.082;18.178;2023-02-10T12:19:47;7.90;;;4.10;;
76336;SDS011;65157;50.082;18.178;2023-02-10T12:25:30;18.20;;;8.20;;
76336;SDS011;65157;50.082;18.178;2023-02-10T12:29:02;9.90;;;4.60;;
76336;SDS011;65157;50.082;18.178;2023-02-10T12:37:00;18.80;;;8.50;;
76336;SDS011;65157;50.082;18.178;2023-02-10T12:39:39;18.80;;;9.40;;
76336;SDS011;65157;50.082;18.178;2023-02-10T12:45:31;16.30;;;7.20;;
76336;SDS011;65157;50.082;18.178;2023-02-10T12:53:32;21.20;;;9.60;;
76336;SDS011;65157;50.082;18.178;2023-02-10T12:56:07;21.60;;;8.60;;
76336;SDS011;65157;50.082;18.178;2023-02-10T12:58:43;19.50;;;9.00;;
76336;SDS011;65157;50.082;18.178;2023-02-10T13:01:27;16.40;;;8.60;;
76336;SDS011;65157;50.082;18.178;2023-02-10T13:04:05;13.00;;;6.50;;
76336;SDS011;65157;50.082;18.178;2023-02-10T13:06:43;10.00;;;5.70;;
76336;SDS011;65157;50.082;18.178;2023-02-10T13:09:24;15.70;;;7.70;;
76336;SDS011;65157;50.082;18.178;2023-02-10T13:15:01;14.00;;;7.70;;
76336;SDS011;65157;50.082;18.178;2023-02-10T13:17:48;13.40;;;7.70;;
76336;SDS011;65157;50.082;18.178;2023-02-10T13:20:27;8.60;;;4.70;;
76336;SDS011;65157;50.082;18.178;2023-02-10T13:31:58;17.90;;;7.90;;
76336;SDS011;65157;50.082;18.178;2023-02-10T13:34:28;12.40;;;7.20;;
76336;SDS011;65157;50.082;18.178;2023-02-10T13:39:56;17.20;;;8.50;;
76336;SDS011;65157;50.082;18.178;2023-02-10T13:42:26;17.30;;;8.70;;
76336;SDS011;65157;50.082;18.178;2023-02-10T13:44:58;20.60;;;10.20;;
76336;SDS011;65157;50.082;18.178;2023-02-10T13:52:53;13.60;;;6.40;;
76336;SDS011;65157;50.082;18.178;2023-02-10T13:58:31;15.90;;;8.10;;
76336;SDS011;65157;50.082;18.178;2023-02-10T14:00:47;16.90;;;8.00;;
76336;SDS011;65157;50.082;18.178;2023-02-10T14:05:53;11.40;;;6.50;;
76336;SDS011;65157;50.082;18.178;2023-02-10T14:11:25;18.10;;;9.10;;
76336;SDS011;65157;50.082;18.178;2023-02-10T14:14:15;16.90;;;8.80;;
76336;SDS011;65157;50.082;18.178;2023-02-10T14:16:44;20.50;;;8.80;;
76336;SDS011;65157;50.082;18.178;2023-02-10T14:19:22;16.10;;;8.50;;
76336;SDS011;65157;50.082;18.178;2023-02-10T14:21:54;15.80;;;8.60;;
76336;SDS011;65157;50.082;18.178;2023-02-10T14:24:44;18.10;;;8.90;;
76336;SDS011;65157;50.082;18.178;2023-02-10T14:27:11;21.90;;;11.00;;
76336;SDS011;65157;50.082;18.178;2023-02-10T14:29:43;19.80;;;9.40;;
76336;SDS011;65157;50.082;18.178;2023-02-10T14:32:13;19.80;;;9.80;;
76336;SDS011;65157;50.082;18.178;2023-02-10T14:37:20;20.50;;;10.00;;
76336;SDS011;65157;50.082;18.178;2023-02-10T14:39:51;17.40;;;9.10;;
76336;SDS011;65157;50.082;18.178;2023-02-10T14:42:20;21.70;;;10.80;;
76336;SDS011;65157;50.082;18.178;2023-02-10T14:44:49;21.30;;;12.30;;
76336;SDS011;65157;50.082;18.178;2023-02-10T14:47:18;22.00;;;10.90;;
76336;SDS011;65157;50.082;18.178;2023-02-10T14:49:50;21.20;;;11.20;;
76336;SDS011;65157;50.082;18.178;2023-02-10T14:54:52;25.00;;;12.90;;
76336;SDS011;65157;50.082;18.178;2023-02-10T14:57:19;22.20;;;11.40;;
76336;SDS011;65157;50.082;18.178;2023-02-10T14:59:57;22.70;;;12.80;;
76336;SDS011;65157;50.082;18.178;2023-02-10T15:02:26;22.30;;;11.30;;
76336;SDS011;65157;50.082;18.178;2023-02-10T15:04:57;27.20;;;11.60;;
76336;SDS011;65157;50.082;18.178;2023-02-10T15:07:27;33.00;;;15.00;;
76336;SDS011;65157;50.082;18.178;2023-02-10T15:09:58;32.50;;;14.30;;
76336;SDS011;65157;50.082;18.178;2023-02-10T15:12:50;25.90;;;11.70;;
76336;SDS011;65157;50.082;18.178;2023-02-10T15:15:52;28.80;;;14.50;;
76336;SDS011;65157;50.082;18.178;2023-02-10T15:18:18;30.10;;;12.40;;
76336;SDS011;65157;50.082;18.178;2023-02-10T15:20:54;26.50;;;13.30;;
76336;SDS011;65157;50.082;18.178;2023-02-10T15:23:26;30.20;;;14.20;;
76336;SDS011;65157;50.082;18.178;2023-02-10T15:28:28;29.40;;;13.80;;
76336;SDS011;65157;50.082;18.178;2023-02-10T15:31:13;28.10;;;13.40;;
76336;SDS011;65157;50.082;18.178;2023-02-10T15:36:20;26.00;;;12.60;;
76336;SDS011;65157;50.082;18.178;2023-02-10T15:38:51;19.10;;;9.70;;
76336;SDS011;65157;50.082;18.178;2023-02-10T15:46:53;22.20;;;10.60;;
76336;SDS011;65157;50.082;18.178;2023-02-10T15:49:37;27.50;;;13.40;;
76336;SDS011;65157;50.082;18.178;2023-02-10T15:52:03;29.00;;;13.80;;
76336;SDS011;65157;50.082;18.178;2023-02-10T15:54:30;29.50;;;14.30;;
76336;SDS011;65157;50.082;18.178;2023-02-10T15:56:58;34.30;;;15.00;;
76336;SDS011;65157;50.082;18.178;2023-02-10T15:59:27;40.50;;;17.30;;
76336;SDS011;65157;50.082;18.178;2023-02-10T16:01:55;39.60;;;17.80;;
76336;SDS011;65157;50.082;18.178;2023-02-10T16:04:32;38.20;;;15.90;;
76336;SDS011;65157;50.082;18.178;2023-02-10T16:06:59;42.70;;;17.40;;
76336;SDS011;65157;50.082;18.178;2023-02-10T16:09:27;38.20;;;15.70;;
76336;SDS011;65157;50.082;18.178;2023-02-10T16:11:55;38.40;;;17.30;;
76336;SDS011;65157;50.082;18.178;2023-02-10T16:14:22;37.20;;;16.30;;
76336;SDS011;65157;50.082;18.178;2023-02-10T16:16:49;37.10;;;17.40;;
76336;SDS011;65157;50.082;18.178;2023-02-10T16:19:18;41.40;;;17.90;;
76336;SDS011;65157;50.082;18.178;2023-02-10T16:21:50;35.90;;;15.80;;
76336;SDS011;65157;50.082;18.178;2023-02-10T16:26:46;30.30;;;13.80;;
76336;SDS011;65157;50.082;18.178;2023-02-10T16:29:14;37.40;;;16.90;;
76336;SDS011;65157;50.082;18.178;2023-02-10T16:31:44;26.20;;;12.10;;
76336;SDS011;65157;50.082;18.178;2023-02-10T16:34:11;30.30;;;13.70;;
76336;SDS011;65157;50.082;18.178;2023-02-10T16:36:39;32.30;;;14.50;;
76336;SDS011;65157;50.082;18.178;2023-02-10T16:39:10;48.00;;;21.90;;
76336;SDS011;65157;50.082;18.178;2023-02-10T16:41:39;47.60;;;20.20;;
76336;SDS011;65157;50.082;18.178;2023-02-10T16:44:06;41.60;;;19.10;;
76336;SDS011;65157;50.082;18.178;2023-02-10T16:46:32;43.70;;;18.80;;
76336;SDS011;65157;50.082;18.178;2023-02-10T16:51:26;52.30;;;20.20;;
76336;SDS011;65157;50.082;18.178;2023-02-10T16:53:53;50.30;;;18.40;;
76336;SDS011;65157;50.082;18.178;2023-02-10T16:56:20;41.70;;;17.30;;
76336;SDS011;65157;50.082;18.178;2023-02-10T17:01:14;40.00;;;17.60;;
76336;SDS011;65157;50.082;18.178;2023-02-10T17:03:41;46.20;;;17.90;;
76336;SDS011;65157;50.082;18.178;2023-02-10T17:06:08;45.00;;;18.50;;
76336;SDS011;65157;50.082;18.178;2023-02-10T17:08:41;39.60;;;16.30;;
76336;SDS011;65157;50.082;18.178;2023-02-10T17:11:07;30.50;;;14.80;;
76336;SDS011;65157;50.082;18.178;2023-02-10T17:13:34;38.40;;;14.80;;
76336;SDS011;65157;50.082;18.178;2023-02-10T17:16:01;45.40;;;18.60;;
76336;SDS011;65157;50.082;18.178;2023-02-10T17:18:27;54.20;;;20.90;;